sensor_id;sensor_type;location;lat;lon;timestamp;temperature;humidity
7077;DHT22;3579;48.956;9.154;2023-08-21T00:01:22;28.70;65.20
7077;DHT22;3579;48.956;9.154;2023-08-21T00:03:48;28.70;65.30
7077;DHT22;3579;48.956;9.154;2023-08-21T00:06:14;28.70;65.20
7077;DHT22;3579;48.956;9.154;2023-08-21T00:08:40;28.70;65.30
7077;DHT22;3579;48.956;9.154;2023-08-21T00:11:06;28.70;65.30
7077;DHT22;3579;48.956;9.154;2023-08-21T00:13:32;28.70;65.40
7077;DHT22;3579;48.956;9.154;2023-08-21T00:15:58;28.70;65.30
7077;DHT22;3579;48.956;9.154;2023-08-21T00:18:24;28.70;65.30
7077;DHT22;3579;48.956;9.154;2023-08-21T00:20:51;28.70;65.30
7077;DHT22;3579;48.956;9.154;2023-08-21T00:23:17;28.70;65.30
7077;DHT22;3579;48.956;9.154;2023-08-21T00:25:46;28.70;65.40
7077;DHT22;3579;48.956;9.154;2023-08-21T00:28:13;28.60;65.30
7077;DHT22;3579;48.956;9.154;2023-08-21T00:30:39;28.60;65.20
7077;DHT22;3579;48.956;9.154;2023-08-21T00:33:05;28.60;65.30
7077;DHT22;3579;48.956;9.154;2023-08-21T00:35:31;28.60;65.30
7077;DHT22;3579;48.956;9.154;2023-08-21T00:37:57;28.60;65.30
7077;DHT22;3579;48.956;9.154;2023-08-21T00:40:23;28.60;65.30
7077;DHT22;3579;48.956;9.154;2023-08-21T00:42:49;28.60;65.30
7077;DHT22;3579;48.956;9.154;2023-08-21T00:45:15;28.60;65.30
7077;DHT22;3579;48.956;9.154;2023-08-21T00:47:42;28.60;65.30
7077;DHT22;3579;48.956;9.154;2023-08-21T00:50:09;28.60;65.30
7077;DHT22;3579;48.956;9.154;2023-08-21T00:52:39;28.60;65.30
7077;DHT22;3579;48.956;9.154;2023-08-21T00:55:07;28.60;65.40
7077;DHT22;3579;48.956;9.154;2023-08-21T00:57:33;28.60;65.30
7077;DHT22;3579;48.956;9.154;2023-08-21T01:00:00;28.60;65.40
7077;DHT22;3579;48.956;9.154;2023-08-21T01:02:26;28.60;65.40
7077;DHT22;3579;48.956;9.154;2023-08-21T01:04:53;28.60;65.40
7077;DHT22;3579;48.956;9.154;2023-08-21T01:07:19;28.60;65.40
7077;DHT22;3579;48.956;9.154;2023-08-21T01:10:20;28.60;65.40
7077;DHT22;3579;48.956;9.154;2023-08-21T01:12:54;28.60;65.50
7077;DHT22;3579;48.956;9.154;2023-08-21T01:15:23;28.60;65.40
7077;DHT22;3579;48.956;9.154;2023-08-21T01:17:50;28.50;65.40
7077;DHT22;3579;48.956;9.154;2023-08-21T01:20:16;28.50;65.50
7077;DHT22;3579;48.956;9.154;2023-08-21T01:22:43;28.50;65.50
7077;DHT22;3579;48.956;9.154;2023-08-21T01:25:12;28.50;65.50
7077;DHT22;3579;48.956;9.154;2023-08-21T01:27:45;28.50;65.50
7077;DHT22;3579;48.956;9.154;2023-08-21T01:30:12;28.50;65.50
7077;DHT22;3579;48.956;9.154;2023-08-21T01:33:08;28.50;65.50
7077;DHT22;3579;48.956;9.154;2023-08-21T01:35:36;28.50;65.50
7077;DHT22;3579;48.956;9.154;2023-08-21T01:38:03;28.50;65.50
7077;DHT22;3579;48.956;9.154;2023-08-21T01:40:29;28.50;65.60
7077;DHT22;3579;48.956;9.154;2023-08-21T01:42:55;28.50;65.60
7077;DHT22;3579;48.956;9.154;2023-08-21T01:45:22;28.50;65.60
7077;DHT22;3579;48.956;9.154;2023-08-21T01:47:48;28.50;65.60
7077;DHT22;3579;48.956;9.154;2023-08-21T01:50:14;28.50;65.60
7077;DHT22;3579;48.956;9.154;2023-08-21T01:52:40;28.50;65.60
7077;DHT22;3579;48.956;9.154;2023-08-21T01:55:06;28.50;65.60
7077;DHT22;3579;48.956;9.154;2023-08-21T01:57:34;28.50;65.70
7077;DHT22;3579;48.956;9.154;2023-08-21T02:00:00;28.50;65.70
7077;DHT22;3579;48.956;9.154;2023-08-21T02:02:26;28.40;65.60
7077;DHT22;3579;48.956;9.154;2023-08-21T02:04:52;28.40;65.60
7077;DHT22;3579;48.956;9.154;2023-08-21T02:07:18;28.40;65.60
7077;DHT22;3579;48.956;9.154;2023-08-21T02:09:44;28.40;65.70
7077;DHT22;3579;48.956;9.154;2023-08-21T02:12:10;28.40;65.70
7077;DHT22;3579;48.956;9.154;2023-08-21T02:14:35;28.40;65.70
7077;DHT22;3579;48.956;9.154;2023-08-21T02:17:02;28.40;65.70
7077;DHT22;3579;48.956;9.154;2023-08-21T02:19:28;28.40;65.70
7077;DHT22;3579;48.956;9.154;2023-08-21T02:21:54;28.40;65.80
7077;DHT22;3579;48.956;9.154;2023-08-21T02:24:20;28.40;65.80
7077;DHT22;3579;48.956;9.154;2023-08-21T02:26:46;28.40;65.80
7077;DHT22;3579;48.956;9.154;2023-08-21T02:29:12;28.40;65.80
7077;DHT22;3579;48.956;9.154;2023-08-21T02:31:38;28.40;65.80
7077;DHT22;3579;48.956;9.154;2023-08-21T02:34:04;28.40;65.80
7077;DHT22;3579;48.956;9.154;2023-08-21T02:36:30;28.40;65.90
7077;DHT22;3579;48.956;9.154;2023-08-21T02:38:56;28.40;65.90
7077;DHT22;3579;48.956;9.154;2023-08-21T02:41:22;28.30;65.80
7077;DHT22;3579;48.956;9.154;2023-08-21T02:43:48;28.30;65.80
7077;DHT22;3579;48.956;9.154;2023-08-21T02:46:13;28.30;65.90
7077;DHT22;3579;48.956;9.154;2023-08-21T02:48:40;28.30;65.90
7077;DHT22;3579;48.956;9.154;2023-08-21T02:51:06;28.30;65.90
7077;DHT22;3579;48.956;9.154;2023-08-21T02:53:32;28.30;65.90
7077;DHT22;3579;48.956;9.154;2023-08-21T02:55:58;28.30;65.90
7077;DHT22;3579;48.956;9.154;2023-08-21T02:58:24;28.30;65.90
7077;DHT22;3579;48.956;9.154;2023-08-21T03:00:50;28.30;65.90
7077;DHT22;3579;48.956;9.154;2023-08-21T03:03:16;28.30;66.00
7077;DHT22;3579;48.956;9.154;2023-08-21T03:05:42;28.30;66.00
7077;DHT22;3579;48.956;9.154;2023-08-21T03:08:08;28.30;66.00
7077;DHT22;3579;48.956;9.154;2023-08-21T03:10:34;28.30;66.00
7077;DHT22;3579;48.956;9.154;2023-08-21T03:13:03;28.30;66.10
7077;DHT22;3579;48.956;9.154;2023-08-21T03:15:28;28.30;66.10
7077;DHT22;3579;48.956;9.154;2023-08-21T03:17:55;28.20;66.00
7077;DHT22;3579;48.956;9.154;2023-08-21T03:20:21;28.20;66.00
7077;DHT22;3579;48.956;9.154;2023-08-21T03:22:47;28.20;66.10
7077;DHT22;3579;48.956;9.154;2023-08-21T03:25:13;28.20;66.10
7077;DHT22;3579;48.956;9.154;2023-08-21T03:27:39;28.20;66.10
7077;DHT22;3579;48.956;9.154;2023-08-21T03:30:06;28.20;66.10
7077;DHT22;3579;48.956;9.154;2023-08-21T03:32:33;28.20;66.10
7077;DHT22;3579;48.956;9.154;2023-08-21T03:34:59;28.20;66.10
7077;DHT22;3579;48.956;9.154;2023-08-21T03:37:25;28.20;66.10
7077;DHT22;3579;48.956;9.154;2023-08-21T03:39:51;28.20;66.20
7077;DHT22;3579;48.956;9.154;2023-08-21T03:42:17;28.20;66.20
7077;DHT22;3579;48.956;9.154;2023-08-21T03:44:43;28.20;66.20
7077;DHT22;3579;48.956;9.154;2023-08-21T03:47:09;28.20;66.20
7077;DHT22;3579;48.956;9.154;2023-08-21T03:49:36;28.20;66.20
7077;DHT22;3579;48.956;9.154;2023-08-21T03:52:02;28.20;66.30
7077;DHT22;3579;48.956;9.154;2023-08-21T03:54:28;28.10;66.20
7077;DHT22;3579;48.956;9.154;2023-08-21T03:56:54;28.10;66.20
7077;DHT22;3579;48.956;9.154;2023-08-21T03:59:20;28.20;66.30
7077;DHT22;3579;48.956;9.154;2023-08-21T04:01:46;28.10;66.20
7077;DHT22;3579;48.956;9.154;2023-08-21T04:04:12;28.10;66.20
7077;DHT22;3579;48.956;9.154;2023-08-21T04:06:38;28.10;66.30
7077;DHT22;3579;48.956;9.154;2023-08-21T04:09:04;28.10;66.30
7077;DHT22;3579;48.956;9.154;2023-08-21T04:11:32;28.10;66.30
7077;DHT22;3579;48.956;9.154;2023-08-21T04:13:58;28.10;66.30
7077;DHT22;3579;48.956;9.154;2023-08-21T04:16:24;28.10;66.30
7077;DHT22;3579;48.956;9.154;2023-08-21T04:18:50;28.10;66.30
7077;DHT22;3579;48.956;9.154;2023-08-21T04:21:16;28.10;66.40
7077;DHT22;3579;48.956;9.154;2023-08-21T04:23:44;28.10;66.40
7077;DHT22;3579;48.956;9.154;2023-08-21T04:26:11;28.10;66.40
7077;DHT22;3579;48.956;9.154;2023-08-21T04:28:37;28.10;66.40
7077;DHT22;3579;48.956;9.154;2023-08-21T04:31:07;28.10;67.10
7077;DHT22;3579;48.956;9.154;2023-08-21T04:33:34;28.10;66.40
7077;DHT22;3579;48.956;9.154;2023-08-21T04:36:00;28.10;66.40
7077;DHT22;3579;48.956;9.154;2023-08-21T04:38:27;28.10;66.40
7077;DHT22;3579;48.956;9.154;2023-08-21T04:40:53;28.10;66.50
7077;DHT22;3579;48.956;9.154;2023-08-21T04:43:19;28.10;67.10
7077;DHT22;3579;48.956;9.154;2023-08-21T04:45:51;28.10;66.50
7077;DHT22;3579;48.956;9.154;2023-08-21T04:48:20;28.10;66.50
7077;DHT22;3579;48.956;9.154;2023-08-21T04:50:47;28.10;66.40
7077;DHT22;3579;48.956;9.154;2023-08-21T04:53:13;28.10;66.50
7077;DHT22;3579;48.956;9.154;2023-08-21T04:55:42;28.10;66.60
7077;DHT22;3579;48.956;9.154;2023-08-21T04:58:08;28.10;67.00
7077;DHT22;3579;48.956;9.154;2023-08-21T05:00:35;28.00;67.10
7077;DHT22;3579;48.956;9.154;2023-08-21T05:03:01;28.10;66.70
7077;DHT22;3579;48.956;9.154;2023-08-21T05:05:27;28.10;66.60
7077;DHT22;3579;48.956;9.154;2023-08-21T05:07:53;28.10;66.90
7077;DHT22;3579;48.956;9.154;2023-08-21T05:10:19;28.10;67.30
7077;DHT22;3579;48.956;9.154;2023-08-21T05:12:46;28.10;67.30
7077;DHT22;3579;48.956;9.154;2023-08-21T05:15:12;28.10;67.50
7077;DHT22;3579;48.956;9.154;2023-08-21T05:17:38;28.10;67.50
7077;DHT22;3579;48.956;9.154;2023-08-21T05:20:05;28.10;67.50
7077;DHT22;3579;48.956;9.154;2023-08-21T05:22:31;28.10;67.60
7077;DHT22;3579;48.956;9.154;2023-08-21T05:24:57;28.10;67.70
7077;DHT22;3579;48.956;9.154;2023-08-21T05:27:23;28.10;67.80
7077;DHT22;3579;48.956;9.154;2023-08-21T05:29:49;28.10;67.80
7077;DHT22;3579;48.956;9.154;2023-08-21T05:32:17;28.10;67.90
7077;DHT22;3579;48.956;9.154;2023-08-21T05:34:43;28.10;68.00
7077;DHT22;3579;48.956;9.154;2023-08-21T05:37:09;28.10;68.00
7077;DHT22;3579;48.956;9.154;2023-08-21T05:39:35;28.10;68.00
7077;DHT22;3579;48.956;9.154;2023-08-21T05:42:01;28.10;68.00
7077;DHT22;3579;48.956;9.154;2023-08-21T05:44:27;28.10;68.00
7077;DHT22;3579;48.956;9.154;2023-08-21T05:46:53;28.10;68.20
7077;DHT22;3579;48.956;9.154;2023-08-21T05:49:19;28.10;68.30
7077;DHT22;3579;48.956;9.154;2023-08-21T05:51:45;28.10;68.40
7077;DHT22;3579;48.956;9.154;2023-08-21T05:54:12;28.10;68.50
7077;DHT22;3579;48.956;9.154;2023-08-21T05:56:38;28.10;68.50
7077;DHT22;3579;48.956;9.154;2023-08-21T05:59:04;28.10;68.60
7077;DHT22;3579;48.956;9.154;2023-08-21T06:01:30;28.00;69.20
7077;DHT22;3579;48.956;9.154;2023-08-21T06:03:57;27.90;69.70
7077;DHT22;3579;48.956;9.154;2023-08-21T06:06:23;27.70;70.40
7077;DHT22;3579;48.956;9.154;2023-08-21T06:08:49;27.70;70.80
7077;DHT22;3579;48.956;9.154;2023-08-21T06:11:15;27.60;71.20
7077;DHT22;3579;48.956;9.154;2023-08-21T06:13:41;27.50;71.70
7077;DHT22;3579;48.956;9.154;2023-08-21T06:16:07;27.40;72.30
7077;DHT22;3579;48.956;9.154;2023-08-21T06:18:33;27.40;72.20
7077;DHT22;3579;48.956;9.154;2023-08-21T06:20:59;27.20;72.80
7077;DHT22;3579;48.956;9.154;2023-08-21T06:23:25;27.20;73.30
7077;DHT22;3579;48.956;9.154;2023-08-21T06:25:51;27.10;73.40
7077;DHT22;3579;48.956;9.154;2023-08-21T06:28:17;27.10;73.50
7077;DHT22;3579;48.956;9.154;2023-08-21T06:30:44;27.20;73.10
7077;DHT22;3579;48.956;9.154;2023-08-21T06:33:10;27.20;72.90
7077;DHT22;3579;48.956;9.154;2023-08-21T06:35:36;27.20;72.50
7077;DHT22;3579;48.956;9.154;2023-08-21T06:38:03;27.10;72.70
7077;DHT22;3579;48.956;9.154;2023-08-21T06:40:29;27.10;72.90
7077;DHT22;3579;48.956;9.154;2023-08-21T06:42:55;27.20;72.90
7077;DHT22;3579;48.956;9.154;2023-08-21T06:45:21;27.20;73.00
7077;DHT22;3579;48.956;9.154;2023-08-21T06:47:47;27.10;73.00
7077;DHT22;3579;48.956;9.154;2023-08-21T06:50:16;27.10;73.00
7077;DHT22;3579;48.956;9.154;2023-08-21T06:52:42;27.20;72.80
7077;DHT22;3579;48.956;9.154;2023-08-21T06:55:09;27.20;72.80
7077;DHT22;3579;48.956;9.154;2023-08-21T06:57:37;27.30;72.80
7077;DHT22;3579;48.956;9.154;2023-08-21T07:00:05;27.40;72.50
7077;DHT22;3579;48.956;9.154;2023-08-21T07:02:31;27.40;72.40
7077;DHT22;3579;48.956;9.154;2023-08-21T07:04:57;27.40;72.30
7077;DHT22;3579;48.956;9.154;2023-08-21T07:07:23;27.40;72.20
7077;DHT22;3579;48.956;9.154;2023-08-21T07:09:50;27.40;72.20
7077;DHT22;3579;48.956;9.154;2023-08-21T07:12:16;27.40;72.50
7077;DHT22;3579;48.956;9.154;2023-08-21T07:14:42;27.40;72.50
7077;DHT22;3579;48.956;9.154;2023-08-21T07:17:08;27.40;72.50
7077;DHT22;3579;48.956;9.154;2023-08-21T07:19:34;27.40;72.50
7077;DHT22;3579;48.956;9.154;2023-08-21T07:22:01;27.40;72.20
7077;DHT22;3579;48.956;9.154;2023-08-21T07:24:27;27.40;72.00
7077;DHT22;3579;48.956;9.154;2023-08-21T07:26:53;27.30;72.40
7077;DHT22;3579;48.956;9.154;2023-08-21T07:29:19;27.30;72.00
7077;DHT22;3579;48.956;9.154;2023-08-21T07:31:45;27.40;72.20
7077;DHT22;3579;48.956;9.154;2023-08-21T07:34:11;27.40;72.40
7077;DHT22;3579;48.956;9.154;2023-08-21T07:36:37;27.30;71.90
7077;DHT22;3579;48.956;9.154;2023-08-21T07:39:03;27.20;72.00
7077;DHT22;3579;48.956;9.154;2023-08-21T07:41:29;27.30;72.10
7077;DHT22;3579;48.956;9.154;2023-08-21T07:43:55;27.40;72.30
7077;DHT22;3579;48.956;9.154;2023-08-21T07:46:21;27.50;72.40
7077;DHT22;3579;48.956;9.154;2023-08-21T07:48:50;27.50;72.30
7077;DHT22;3579;48.956;9.154;2023-08-21T07:51:16;27.60;72.10
7077;DHT22;3579;48.956;9.154;2023-08-21T07:53:42;27.60;72.00
7077;DHT22;3579;48.956;9.154;2023-08-21T07:56:08;27.70;72.00
7077;DHT22;3579;48.956;9.154;2023-08-21T07:58:34;27.70;72.00
7077;DHT22;3579;48.956;9.154;2023-08-21T08:01:02;27.70;72.20
7077;DHT22;3579;48.956;9.154;2023-08-21T08:03:30;27.80;72.10
7077;DHT22;3579;48.956;9.154;2023-08-21T08:05:58;27.80;72.10
7077;DHT22;3579;48.956;9.154;2023-08-21T08:08:24;27.80;72.30
7077;DHT22;3579;48.956;9.154;2023-08-21T08:10:51;27.80;72.30
7077;DHT22;3579;48.956;9.154;2023-08-21T08:13:17;27.80;72.20
7077;DHT22;3579;48.956;9.154;2023-08-21T08:15:43;27.90;72.30
7077;DHT22;3579;48.956;9.154;2023-08-21T08:18:12;27.80;71.70
7077;DHT22;3579;48.956;9.154;2023-08-21T08:20:39;27.80;71.70
7077;DHT22;3579;48.956;9.154;2023-08-21T08:23:05;27.80;71.90
7077;DHT22;3579;48.956;9.154;2023-08-21T08:25:31;27.90;71.90
7077;DHT22;3579;48.956;9.154;2023-08-21T08:27:57;27.90;71.00
7077;DHT22;3579;48.956;9.154;2023-08-21T08:30:23;27.80;71.10
7077;DHT22;3579;48.956;9.154;2023-08-21T08:32:50;27.80;71.40
7077;DHT22;3579;48.956;9.154;2023-08-21T08:35:16;27.70;71.90
7077;DHT22;3579;48.956;9.154;2023-08-21T08:37:42;27.80;72.20
7077;DHT22;3579;48.956;9.154;2023-08-21T08:40:09;27.80;72.30
7077;DHT22;3579;48.956;9.154;2023-08-21T08:42:36;27.90;72.10
7077;DHT22;3579;48.956;9.154;2023-08-21T08:45:03;28.00;71.90
7077;DHT22;3579;48.956;9.154;2023-08-21T08:47:32;28.00;71.60
7077;DHT22;3579;48.956;9.154;2023-08-21T08:49:59;28.10;71.60
7077;DHT22;3579;48.956;9.154;2023-08-21T08:52:27;28.10;73.00
7077;DHT22;3579;48.956;9.154;2023-08-21T08:54:55;28.20;72.60
7077;DHT22;3579;48.956;9.154;2023-08-21T08:57:23;28.20;72.30
7077;DHT22;3579;48.956;9.154;2023-08-21T08:59:49;28.20;72.40
7077;DHT22;3579;48.956;9.154;2023-08-21T09:02:16;28.20;73.60
7077;DHT22;3579;48.956;9.154;2023-08-21T09:04:42;28.20;72.50
7077;DHT22;3579;48.956;9.154;2023-08-21T09:07:12;28.30;72.40
7077;DHT22;3579;48.956;9.154;2023-08-21T09:09:39;28.30;72.80
7077;DHT22;3579;48.956;9.154;2023-08-21T09:12:13;28.30;72.60
7077;DHT22;3579;48.956;9.154;2023-08-21T09:14:40;28.30;72.40
7077;DHT22;3579;48.956;9.154;2023-08-21T09:17:07;28.40;73.50
7077;DHT22;3579;48.956;9.154;2023-08-21T09:19:34;28.50;72.80
7077;DHT22;3579;48.956;9.154;2023-08-21T09:22:18;28.50;72.80
7077;DHT22;3579;48.956;9.154;2023-08-21T09:25:05;28.50;73.20
7077;DHT22;3579;48.956;9.154;2023-08-21T09:27:38;28.60;73.20
7077;DHT22;3579;48.956;9.154;2023-08-21T09:30:05;28.60;72.90
7077;DHT22;3579;48.956;9.154;2023-08-21T09:32:58;28.60;72.90
7077;DHT22;3579;48.956;9.154;2023-08-21T09:35:26;27.50;72.00
7077;DHT22;3579;48.956;9.154;2023-08-21T09:37:52;28.70;72.30
7077;DHT22;3579;48.956;9.154;2023-08-21T09:40:20;28.70;71.70
7077;DHT22;3579;48.956;9.154;2023-08-21T09:42:52;28.70;71.80
7077;DHT22;3579;48.956;9.154;2023-08-21T09:45:23;28.70;71.20
7077;DHT22;3579;48.956;9.154;2023-08-21T09:47:51;28.70;71.50
7077;DHT22;3579;48.956;9.154;2023-08-21T09:50:18;28.80;70.90
7077;DHT22;3579;48.956;9.154;2023-08-21T09:52:45;28.90;69.90
7077;DHT22;3579;48.956;9.154;2023-08-21T09:55:13;28.90;69.60
7077;DHT22;3579;48.956;9.154;2023-08-21T09:57:39;28.90;69.40
7077;DHT22;3579;48.956;9.154;2023-08-21T10:00:09;28.90;69.40
7077;DHT22;3579;48.956;9.154;2023-08-21T10:02:49;28.90;68.80
7077;DHT22;3579;48.956;9.154;2023-08-21T10:05:19;28.90;67.90
7077;DHT22;3579;48.956;9.154;2023-08-21T10:07:49;29.10;63.10
7077;DHT22;3579;48.956;9.154;2023-08-21T10:10:16;29.20;63.50
7077;DHT22;3579;48.956;9.154;2023-08-21T10:12:43;29.10;63.30
7077;DHT22;3579;48.956;9.154;2023-08-21T10:15:09;29.20;61.60
7077;DHT22;3579;48.956;9.154;2023-08-21T10:17:37;29.10;61.90
7077;DHT22;3579;48.956;9.154;2023-08-21T10:20:05;29.20;63.60
7077;DHT22;3579;48.956;9.154;2023-08-21T10:22:44;29.20;64.20
7077;DHT22;3579;48.956;9.154;2023-08-21T10:25:19;29.20;64.60
7077;DHT22;3579;48.956;9.154;2023-08-21T10:27:56;29.20;64.70
7077;DHT22;3579;48.956;9.154;2023-08-21T10:30:24;29.20;63.50
7077;DHT22;3579;48.956;9.154;2023-08-21T10:32:56;29.30;63.10
7077;DHT22;3579;48.956;9.154;2023-08-21T10:35:24;29.30;62.50
7077;DHT22;3579;48.956;9.154;2023-08-21T10:38:16;29.30;62.40
7077;DHT22;3579;48.956;9.154;2023-08-21T10:41:06;29.20;63.60
7077;DHT22;3579;48.956;9.154;2023-08-21T10:43:44;29.30;63.20
7077;DHT22;3579;48.956;9.154;2023-08-21T10:46:11;29.30;63.40
7077;DHT22;3579;48.956;9.154;2023-08-21T10:48:38;29.30;63.70
7077;DHT22;3579;48.956;9.154;2023-08-21T10:51:07;29.40;63.10
7077;DHT22;3579;48.956;9.154;2023-08-21T10:53:34;29.50;61.90
7077;DHT22;3579;48.956;9.154;2023-08-21T10:56:02;29.60;62.10
7077;DHT22;3579;48.956;9.154;2023-08-21T10:58:28;29.50;61.50
7077;DHT22;3579;48.956;9.154;2023-08-21T11:00:58;29.50;61.10
7077;DHT22;3579;48.956;9.154;2023-08-21T11:03:24;29.60;60.80
7077;DHT22;3579;48.956;9.154;2023-08-21T11:06:01;29.60;60.90
7077;DHT22;3579;48.956;9.154;2023-08-21T11:08:28;29.60;60.90
7077;DHT22;3579;48.956;9.154;2023-08-21T11:10:55;29.60;60.70
7077;DHT22;3579;48.956;9.154;2023-08-21T11:13:24;29.60;60.80
7077;DHT22;3579;48.956;9.154;2023-08-21T11:16:01;29.80;60.30
7077;DHT22;3579;48.956;9.154;2023-08-21T11:18:31;29.80;59.80
7077;DHT22;3579;48.956;9.154;2023-08-21T11:21:08;29.70;60.00
7077;DHT22;3579;48.956;9.154;2023-08-21T11:23:38;29.80;60.90
7077;DHT22;3579;48.956;9.154;2023-08-21T11:26:05;29.90;61.10
7077;DHT22;3579;48.956;9.154;2023-08-21T11:28:32;29.80;61.70
7077;DHT22;3579;48.956;9.154;2023-08-21T11:30:59;29.70;62.00
7077;DHT22;3579;48.956;9.154;2023-08-21T11:33:26;29.80;61.70
7077;DHT22;3579;48.956;9.154;2023-08-21T11:35:52;29.90;62.20
7077;DHT22;3579;48.956;9.154;2023-08-21T11:38:25;29.90;61.20
7077;DHT22;3579;48.956;9.154;2023-08-21T11:43:33;30.10;60.90
7077;DHT22;3579;48.956;9.154;2023-08-21T11:46:02;30.10;60.00
7077;DHT22;3579;48.956;9.154;2023-08-21T11:48:28;30.20;59.30
7077;DHT22;3579;48.956;9.154;2023-08-21T11:50:55;30.20;59.80
7077;DHT22;3579;48.956;9.154;2023-08-21T11:53:35;30.20;59.90
7077;DHT22;3579;48.956;9.154;2023-08-21T11:56:08;30.10;60.30
7077;DHT22;3579;48.956;9.154;2023-08-21T11:58:40;30.10;61.00
7077;DHT22;3579;48.956;9.154;2023-08-21T12:01:07;30.10;61.10
7077;DHT22;3579;48.956;9.154;2023-08-21T12:03:40;30.30;60.00
7077;DHT22;3579;48.956;9.154;2023-08-21T12:06:07;30.30;59.00
7077;DHT22;3579;48.956;9.154;2023-08-21T12:08:34;30.20;59.10
7077;DHT22;3579;48.956;9.154;2023-08-21T12:11:01;30.30;59.00
7077;DHT22;3579;48.956;9.154;2023-08-21T12:13:27;30.30;59.20
7077;DHT22;3579;48.956;9.154;2023-08-21T12:15:53;30.10;59.80
7077;DHT22;3579;48.956;9.154;2023-08-21T12:18:20;30.30;60.20
7077;DHT22;3579;48.956;9.154;2023-08-21T12:20:46;30.40;60.50
7077;DHT22;3579;48.956;9.154;2023-08-21T12:23:12;30.30;60.60
7077;DHT22;3579;48.956;9.154;2023-08-21T12:25:38;30.40;59.70
7077;DHT22;3579;48.956;9.154;2023-08-21T12:28:05;30.30;59.90
7077;DHT22;3579;48.956;9.154;2023-08-21T12:30:31;30.20;60.80
7077;DHT22;3579;48.956;9.154;2023-08-21T12:32:57;30.40;60.10
7077;DHT22;3579;48.956;9.154;2023-08-21T12:35:23;30.60;60.00
7077;DHT22;3579;48.956;9.154;2023-08-21T12:37:49;30.70;59.10
7077;DHT22;3579;48.956;9.154;2023-08-21T12:40:15;30.60;59.40
7077;DHT22;3579;48.956;9.154;2023-08-21T12:42:42;30.50;60.00
7077;DHT22;3579;48.956;9.154;2023-08-21T12:45:08;30.60;59.40
7077;DHT22;3579;48.956;9.154;2023-08-21T12:47:34;30.70;59.30
7077;DHT22;3579;48.956;9.154;2023-08-21T12:50:00;30.80;58.80
7077;DHT22;3579;48.956;9.154;2023-08-21T12:52:28;30.70;59.40
7077;DHT22;3579;48.956;9.154;2023-08-21T12:54:54;30.80;59.00
7077;DHT22;3579;48.956;9.154;2023-08-21T12:57:20;30.90;58.60
7077;DHT22;3579;48.956;9.154;2023-08-21T12:59:47;30.80;58.80
7077;DHT22;3579;48.956;9.154;2023-08-21T13:02:13;30.80;59.30
7077;DHT22;3579;48.956;9.154;2023-08-21T13:04:39;30.80;59.40
7077;DHT22;3579;48.956;9.154;2023-08-21T13:07:05;30.60;60.20
7077;DHT22;3579;48.956;9.154;2023-08-21T13:09:31;30.60;60.00
7077;DHT22;3579;48.956;9.154;2023-08-21T13:11:59;30.70;59.90
7077;DHT22;3579;48.956;9.154;2023-08-21T13:14:26;30.80;59.60
7077;DHT22;3579;48.956;9.154;2023-08-21T13:16:52;30.90;58.20
7077;DHT22;3579;48.956;9.154;2023-08-21T13:19:18;30.90;59.10
7077;DHT22;3579;48.956;9.154;2023-08-21T13:21:44;30.80;59.10
7077;DHT22;3579;48.956;9.154;2023-08-21T13:24:11;30.80;59.50
7077;DHT22;3579;48.956;9.154;2023-08-21T13:26:37;30.80;59.80
7077;DHT22;3579;48.956;9.154;2023-08-21T13:29:03;31.00;58.50
7077;DHT22;3579;48.956;9.154;2023-08-21T13:31:29;31.10;58.00
7077;DHT22;3579;48.956;9.154;2023-08-21T13:33:56;31.10;57.80
7077;DHT22;3579;48.956;9.154;2023-08-21T13:36:22;31.20;58.00
7077;DHT22;3579;48.956;9.154;2023-08-21T13:38:48;31.20;58.40
7077;DHT22;3579;48.956;9.154;2023-08-21T13:41:14;31.30;58.60
7077;DHT22;3579;48.956;9.154;2023-08-21T13:43:40;31.10;58.50
7077;DHT22;3579;48.956;9.154;2023-08-21T13:46:06;31.10;58.30
7077;DHT22;3579;48.956;9.154;2023-08-21T13:48:33;31.10;58.00
7077;DHT22;3579;48.956;9.154;2023-08-21T13:50:59;31.10;58.40
7077;DHT22;3579;48.956;9.154;2023-08-21T13:53:25;31.10;58.40
7077;DHT22;3579;48.956;9.154;2023-08-21T13:55:51;31.20;58.60
7077;DHT22;3579;48.956;9.154;2023-08-21T13:58:17;31.20;58.90
7077;DHT22;3579;48.956;9.154;2023-08-21T14:00:43;31.20;59.10
7077;DHT22;3579;48.956;9.154;2023-08-21T14:03:12;31.30;58.60
7077;DHT22;3579;48.956;9.154;2023-08-21T14:05:38;31.20;58.70
7077;DHT22;3579;48.956;9.154;2023-08-21T14:08:04;31.10;58.70
7077;DHT22;3579;48.956;9.154;2023-08-21T14:10:30;31.10;58.90
7077;DHT22;3579;48.956;9.154;2023-08-21T14:12:56;31.10;59.00
7077;DHT22;3579;48.956;9.154;2023-08-21T14:15:23;31.40;57.60
7077;DHT22;3579;48.956;9.154;2023-08-21T14:17:49;31.40;56.90
7077;DHT22;3579;48.956;9.154;2023-08-21T14:20:15;31.20;58.10
7077;DHT22;3579;48.956;9.154;2023-08-21T14:22:41;31.20;57.60
7077;DHT22;3579;48.956;9.154;2023-08-21T14:25:08;31.20;57.50
7077;DHT22;3579;48.956;9.154;2023-08-21T14:27:34;31.50;57.60
7077;DHT22;3579;48.956;9.154;2023-08-21T14:30:00;31.50;58.30
7077;DHT22;3579;48.956;9.154;2023-08-21T14:32:27;31.50;57.80
7077;DHT22;3579;48.956;9.154;2023-08-21T14:34:53;31.50;57.80
7077;DHT22;3579;48.956;9.154;2023-08-21T14:37:20;31.50;57.60
7077;DHT22;3579;48.956;9.154;2023-08-21T14:39:47;31.50;57.70
7077;DHT22;3579;48.956;9.154;2023-08-21T14:42:13;31.70;57.20
7077;DHT22;3579;48.956;9.154;2023-08-21T14:44:39;31.70;57.20
7077;DHT22;3579;48.956;9.154;2023-08-21T14:47:05;31.50;57.20
7077;DHT22;3579;48.956;9.154;2023-08-21T14:49:32;31.70;57.30
7077;DHT22;3579;48.956;9.154;2023-08-21T14:51:58;31.70;57.20
7077;DHT22;3579;48.956;9.154;2023-08-21T14:54:24;31.60;57.50
7077;DHT22;3579;48.956;9.154;2023-08-21T14:56:51;31.40;57.50
7077;DHT22;3579;48.956;9.154;2023-08-21T14:59:17;31.40;57.70
7077;DHT22;3579;48.956;9.154;2023-08-21T15:01:43;31.40;57.70
7077;DHT22;3579;48.956;9.154;2023-08-21T15:04:09;31.40;57.70
7077;DHT22;3579;48.956;9.154;2023-08-21T15:06:38;31.70;56.90
7077;DHT22;3579;48.956;9.154;2023-08-21T15:09:05;31.70;56.70
7077;DHT22;3579;48.956;9.154;2023-08-21T15:11:32;31.70;56.60
7077;DHT22;3579;48.956;9.154;2023-08-21T15:14:01;31.60;57.00
7077;DHT22;3579;48.956;9.154;2023-08-21T15:16:28;31.40;57.50
7077;DHT22;3579;48.956;9.154;2023-08-21T15:18:54;31.40;57.90
7077;DHT22;3579;48.956;9.154;2023-08-21T15:21:20;31.30;58.10
7077;DHT22;3579;48.956;9.154;2023-08-21T15:23:47;31.20;58.10
7077;DHT22;3579;48.956;9.154;2023-08-21T15:26:13;31.20;58.20
7077;DHT22;3579;48.956;9.154;2023-08-21T15:28:39;31.20;58.30
7077;DHT22;3579;48.956;9.154;2023-08-21T15:31:05;31.10;58.40
7077;DHT22;3579;48.956;9.154;2023-08-21T15:33:32;31.10;58.50
7077;DHT22;3579;48.956;9.154;2023-08-21T15:35:58;31.10;58.60
7077;DHT22;3579;48.956;9.154;2023-08-21T15:38:24;31.20;58.80
7077;DHT22;3579;48.956;9.154;2023-08-21T15:40:50;31.20;58.90
7077;DHT22;3579;48.956;9.154;2023-08-21T15:43:16;31.10;58.90
7077;DHT22;3579;48.956;9.154;2023-08-21T15:45:42;31.10;59.00
7077;DHT22;3579;48.956;9.154;2023-08-21T15:48:08;31.10;59.10
7077;DHT22;3579;48.956;9.154;2023-08-21T15:50:34;31.10;59.40
7077;DHT22;3579;48.956;9.154;2023-08-21T15:53:00;31.10;59.20
7077;DHT22;3579;48.956;9.154;2023-08-21T15:55:26;31.10;59.20
7077;DHT22;3579;48.956;9.154;2023-08-21T15:57:52;31.10;59.20
7077;DHT22;3579;48.956;9.154;2023-08-21T16:00:18;31.10;59.30
7077;DHT22;3579;48.956;9.154;2023-08-21T16:02:48;31.10;59.30
7077;DHT22;3579;48.956;9.154;2023-08-21T16:05:15;31.10;59.30